KCHD/CHD METAR and TAF weather

Enter ICAO airport designator
Station Type Date Time Source
KCHD METAR 2019/02/20 03:47 UTC NOAA

KCHD 200347Z 24009KT 10SM CLR 07/M08 A3005 RMK LAST


Station Type Date Time Source
KCHD Decoded METAR 2019/02/20 03:47 UTC NOAA

Chandler, Chandler Municipal Airport, AZ, United States (KCHD) 33-16-09N 111-48-40W
Feb 19, 2019 - 10:47 PM EST / 2019.02.20 0347 UTC
Wind: from the WSW (240 degrees) at 10 MPH (9 KT):0
Visibility: 10 mile(s):0
Sky conditions: clear
Temperature: 44 F (7 C)
Dew Point: 17 F (-8 C)
Relative Humidity: 33%
Pressure (altimeter): 30.05 in. Hg (1017 hPa)
ob: KCHD 200347Z 24009KT 10SM CLR 07/M08 A3005 RMK LAST
cycle: 4

Station Type Date Time Source
KCHD TAF UTC NOAA

Error!


Example: see airport list